Meteo Giornale » Osservazioni meteo Svizzera » Les Eplatures

ore: 13:50 - Osservazioni Meteo Les Eplatures
Lat. 47° 5' N Lon. 6° 47' E Alt. 1027 metri s.l.m.

sereno Europe/Zurich

20 °C

Sereno

Temp. 24 Ore

7 °C

21 °C

Est

9.3 Km/h

Dew point 13 °C

Umidità 64 %

Visibilità  10 Km

Il sole sorge alle ore 06:39

Il sole tramonta alle ore 20:31

Data e Ora Cielo e Fenomeni T °C DP °C Um. % Pres. hPa Vis. km Vento km/h
Oggi h: 13:50 sereno Sereno 20 13 64 1025 10 E 9.3
Oggi h: 13:20 sereno Sereno 20 13 64 1025 10 E 7.4
Oggi h: 12:50 sereno Sereno 19 13 68 1025 10 N 5.5
Oggi h: 12:20 sereno Sereno 20 14 68 1025 10 E/NE 9.3
Oggi h: 11:50 sereno Sereno 19 13 68 1025 10 NE 13
Oggi h: 11:20 sereno Sereno 18 12 67 1025 10 E/NE 11.1
Oggi h: 10:50 sereno Sereno 16 12 77 1025 10 NE 11.1
Oggi h: 10:20 poco_nuvoloso Poco Nuvoloso 16 12 77 1025 10 E/NE 7.4
Oggi h: 09:50 sereno Sereno 15 11 76 1025 10 E/NE 7.4
Oggi h: 09:20 sereno Sereno 14 11 82 1026 10 E/NE 11.1
Oggi h: 08:50 sereno Sereno 14 11 82 1026 10 NE 13
Oggi h: 08:20 sereno Sereno 11 10 93 1025 10 N 3.7
Oggi h: 07:50 sereno Sereno 9 8 93 1025 10 N 3.7
Oggi h: 07:20 sereno Sereno 8 7 93 1025 10 N 3.7
Oggi h: 06:50 sereno Sereno 8 7 93 1025 10 N 1.8
Oggi h: 06:20 sereno Sereno 7 6 93 1025 10 N 1.8
Oggi h: 05:50 sereno Sereno 8 7 93 1026 10 N 1.8
Oggi h: 05:20 sereno Sereno 8 8 100 1026 10 N 1.8
Oggi h: 04:50 sereno Sereno 9 8 93 1026 10 N 0
Oggi h: 04:20 sereno Sereno 8 7 93 1026 10 N 3.7
Oggi h: 03:50 sereno Sereno 8 8 100 1026 10 N 1.8
Oggi h: 03:20 sereno Sereno 10 9 93 1026 10 N 1.8
Oggi h: 02:50 sereno Sereno 11 10 93 1026 10 N 1.8
Oggi h: 02:20 sereno Sereno 11 10 93 1026 10 N 0
Oggi h: 01:50 sereno Sereno 11 10 93 1027 10 N 3.7
Oggi h: 01:20 sereno Sereno 10 9 93 1027 10 N 3.7
Oggi h: 00:50 sereno Sereno 11 10 93 1027 10 N 1.8
Oggi h: 00:20 sereno Sereno 11 10 93 1027 10 N 1.8
Ieri h: 23:50 sereno Sereno 11 10 93 1027 10 N 1.8
Ieri h: 23:20 nuvoloso Nuvoloso 13 12 93 1027 10 N/NE 7.4
Ieri h: 22:50 poco_nuvoloso Poco Nuvoloso 13 12 93 1027 10 N/NE 7.4
Ieri h: 22:20 sereno Sereno 13 12 93 1027 10 N 3.7
Ieri h: 21:50 sereno Sereno 15 13 87 1027 10 N 5.5
Ieri h: 21:20 sereno Sereno 15 13 87 1027 10 N/NE 7.4
Ieri h: 20:50 sereno Sereno 15 13 87 1027 10 N 7.4
Ieri h: 20:20 poco_nuvoloso Poco Nuvoloso 16 13 82 1027 10 NE 9.3
Ieri h: 19:50 poco_nuvoloso Poco Nuvoloso 17 13 77 1026 10 N/NE 7.4
Ieri h: 19:20 poco_nuvoloso Poco Nuvoloso 18 13 72 1026 10 N/NE 9.3
Ieri h: 18:50 poco_nuvoloso Poco Nuvoloso 19 13 68 1026 10 N 9.3
Ieri h: 18:20 poco_nuvoloso Poco Nuvoloso 19 13 68 1026 10 N 9.3
Ieri h: 17:50 sereno Sereno 20 14 68 1026 10 N 9.3
Ieri h: 17:20 poco_nuvoloso Poco Nuvoloso 20 15 72 1026 10 N/NE 11.1
Ieri h: 16:50 sereno Sereno 20 14 68 1026 10 N/NE 9.3
Ieri h: 16:20 sereno Sereno 21 14 64 1026 10 N/NE 11.1
Ieri h: 15:50 sereno Sereno 20 14 68 1026 10 N 9.3
Ieri h: 15:20 sereno Sereno 21 15 68 1026 10 N 9.3
Ieri h: 14:50 nuvoloso Nuvoloso 20 13 64 1026 10 N/NE 9.3